createdAt,value
2018-03-30T00:00:41.404Z,5.50
2018-03-30T00:03:08.743Z,9.80
2018-03-30T00:05:36.029Z,7.87
2018-03-30T00:08:04.074Z,5.30
2018-03-30T00:10:31.357Z,2.93
2018-03-30T00:12:58.635Z,6.50
2018-03-30T00:15:26.350Z,3.63
2018-03-30T00:17:53.632Z,3.90
2018-03-30T00:20:20.895Z,7.60
2018-03-30T00:22:48.185Z,8.40
2018-03-30T00:25:15.453Z,5.10
2018-03-30T00:27:42.743Z,6.00
2018-03-30T00:30:10.007Z,6.60
2018-03-30T00:32:37.309Z,5.60
2018-03-30T00:35:04.559Z,5.67
2018-03-30T00:37:31.869Z,5.70
2018-03-30T00:39:59.128Z,9.40
2018-03-30T00:42:26.403Z,6.10
2018-03-30T00:44:53.664Z,6.83
2018-03-30T00:47:20.954Z,4.67
2018-03-30T00:49:48.253Z,5.10
2018-03-30T00:52:15.506Z,6.40
2018-03-30T00:54:42.986Z,4.50
2018-03-30T00:57:11.086Z,5.37
2018-03-30T00:59:38.362Z,4.23
2018-03-30T01:02:05.619Z,5.70
2018-03-30T01:04:32.899Z,5.47
2018-03-30T01:07:00.168Z,2.87
2018-03-30T01:09:27.458Z,5.90
2018-03-30T01:11:54.726Z,6.03
2018-03-30T01:14:22.007Z,2.47
2018-03-30T01:16:49.273Z,5.33
2018-03-30T01:19:16.559Z,3.50
2018-03-30T01:21:43.850Z,7.10
2018-03-30T01:24:11.139Z,8.20
2018-03-30T01:26:38.975Z,7.70
2018-03-30T01:29:06.250Z,4.90
2018-03-30T01:31:33.525Z,7.10
2018-03-30T01:34:00.802Z,12.30
2018-03-30T01:36:28.075Z,5.30
2018-03-30T01:38:55.360Z,4.63
2018-03-30T01:41:22.635Z,3.80
2018-03-30T01:43:49.910Z,4.90
2018-03-30T01:46:17.970Z,5.17
2018-03-30T01:48:45.234Z,6.13
2018-03-30T01:51:12.574Z,6.07
2018-03-30T01:53:39.843Z,4.70
2018-03-30T01:56:07.134Z,7.53
2018-03-30T01:58:34.414Z,4.53
2018-03-30T02:01:01.700Z,7.80
2018-03-30T02:03:28.963Z,5.07
2018-03-30T02:05:56.245Z,6.20
2018-03-30T02:08:23.520Z,6.50
2018-03-30T02:10:50.807Z,5.20
2018-03-30T02:13:18.779Z,6.63
2018-03-30T02:15:46.060Z,6.17
2018-03-30T02:18:13.353Z,6.93
2018-03-30T02:20:40.619Z,6.40
2018-03-30T02:23:07.909Z,14.20
2018-03-30T02:25:35.297Z,10.77
2018-03-30T02:28:02.576Z,8.40
2018-03-30T02:30:30.503Z,10.20
2018-03-30T02:32:57.782Z,8.73
2018-03-30T02:35:25.051Z,12.07
2018-03-30T02:37:52.337Z,8.40
2018-03-30T02:40:19.635Z,11.03
2018-03-30T02:42:46.902Z,17.40
2018-03-30T02:45:14.185Z,11.80
2018-03-30T02:47:41.465Z,12.83
2018-03-30T02:50:09.565Z,13.87
2018-03-30T02:52:36.840Z,10.10
2018-03-30T02:55:04.129Z,10.27
2018-03-30T02:57:31.461Z,13.77
2018-03-30T02:59:58.695Z,12.00
2018-03-30T03:02:25.973Z,16.67
2018-03-30T03:04:53.261Z,15.53
2018-03-30T03:07:20.568Z,16.40
2018-03-30T03:09:47.864Z,12.30
2018-03-30T03:12:15.147Z,23.37
2018-03-30T03:14:42.447Z,18.70
2018-03-30T03:17:09.722Z,16.30
2018-03-30T03:19:37.019Z,15.90
2018-03-30T03:22:04.309Z,16.47
2018-03-30T03:24:31.581Z,14.70
2018-03-30T03:26:58.860Z,13.17
2018-03-30T03:29:26.133Z,17.13
2018-03-30T03:31:53.431Z,15.57
2018-03-30T03:34:20.725Z,20.00
2018-03-30T03:36:48.007Z,16.43
2018-03-30T03:39:15.299Z,13.73
2018-03-30T03:41:42.578Z,12.30
2018-03-30T03:44:09.850Z,15.77
2018-03-30T03:46:37.134Z,14.73
2018-03-30T03:49:04.410Z,12.70
2018-03-30T03:51:31.690Z,12.93
2018-03-30T03:53:58.963Z,11.80
2018-03-30T03:56:26.246Z,19.57
2018-03-30T03:58:53.526Z,13.30
2018-03-30T04:01:20.827Z,12.57
2018-03-30T04:03:48.098Z,11.13
2018-03-30T04:06:15.386Z,11.83
2018-03-30T04:08:42.674Z,10.40
2018-03-30T04:11:09.942Z,11.97
2018-03-30T04:13:37.222Z,11.70
2018-03-30T04:16:04.495Z,14.80
2018-03-30T04:18:31.787Z,11.00
2018-03-30T04:20:59.069Z,16.90
2018-03-30T04:23:26.358Z,11.60
2018-03-30T04:25:53.638Z,8.70
2018-03-30T04:28:20.943Z,14.97
2018-03-30T04:30:48.214Z,9.83
2018-03-30T04:33:15.496Z,9.80
2018-03-30T04:35:42.783Z,10.80
2018-03-30T04:38:10.057Z,13.40
2018-03-30T04:40:37.358Z,13.13
2018-03-30T04:43:04.658Z,13.63
2018-03-30T04:45:31.924Z,11.93
2018-03-30T04:47:59.215Z,12.77
2018-03-30T04:50:26.511Z,15.03
2018-03-30T04:52:53.798Z,14.90
2018-03-30T04:55:21.097Z,15.30
2018-03-30T04:57:48.723Z,19.33
2018-03-30T05:00:16.023Z,19.90
2018-03-30T05:02:43.303Z,17.70
2018-03-30T05:05:10.595Z,18.63
2018-03-30T05:07:37.879Z,15.30
2018-03-30T05:10:05.172Z,20.53
2018-03-30T05:12:32.457Z,17.17
2018-03-30T05:14:59.760Z,19.63
2018-03-30T05:17:27.056Z,22.03
2018-03-30T05:19:54.345Z,18.37
2018-03-30T05:22:21.652Z,22.00
2018-03-30T05:24:48.940Z,19.37
2018-03-30T05:27:16.234Z,19.90
2018-03-30T05:29:43.512Z,22.50
2018-03-30T05:32:10.805Z,26.77
2018-03-30T05:34:39.089Z,22.10
2018-03-30T05:37:07.111Z,20.90
2018-03-30T05:39:34.382Z,24.93
2018-03-30T05:42:01.678Z,22.13
2018-03-30T05:44:28.962Z,25.10
2018-03-30T05:46:56.236Z,26.60
2018-03-30T05:49:23.536Z,25.60
2018-03-30T05:51:50.853Z,22.90
2018-03-30T05:54:18.138Z,28.47
2018-03-30T05:56:45.453Z,30.30
2018-03-30T05:59:12.723Z,26.60
2018-03-30T06:01:40.015Z,22.10
2018-03-30T06:04:07.300Z,21.97
2018-03-30T06:06:34.623Z,24.20
2018-03-30T06:09:01.921Z,25.63
2018-03-30T06:11:29.208Z,23.20
2018-03-30T06:13:56.487Z,19.77
2018-03-30T06:16:23.790Z,19.30
2018-03-30T06:18:51.086Z,29.67
2018-03-30T06:21:18.389Z,25.10
2018-03-30T06:23:45.663Z,19.20
2018-03-30T06:26:12.974Z,24.80
2018-03-30T06:28:40.254Z,19.83
2018-03-30T06:31:07.578Z,19.53
2018-03-30T06:33:34.867Z,22.07
2018-03-30T06:36:02.162Z,21.33
2018-03-30T06:38:29.643Z,20.80
2018-03-30T06:40:56.923Z,24.57
2018-03-30T06:43:24.215Z,18.47
2018-03-30T06:45:51.542Z,11.93
2018-03-30T06:48:18.862Z,10.67
2018-03-30T06:50:46.205Z,10.80
2018-03-30T06:53:13.477Z,12.43
2018-03-30T06:55:40.758Z,13.53
2018-03-30T06:58:08.038Z,13.40
2018-03-30T07:00:35.331Z,14.27
2018-03-30T07:03:02.631Z,10.73
2018-03-30T07:05:29.911Z,10.20
2018-03-30T07:07:57.679Z,7.90
2018-03-30T07:10:24.995Z,8.30
2018-03-30T07:12:52.273Z,12.23
2018-03-30T07:15:19.589Z,12.70
2018-03-30T07:17:46.864Z,10.67
2018-03-30T07:20:14.147Z,11.63
2018-03-30T07:22:41.959Z,7.80
2018-03-30T07:25:09.232Z,9.20
2018-03-30T07:27:36.502Z,9.30
2018-03-30T07:30:03.798Z,9.30
2018-03-30T07:32:31.059Z,8.73
2018-03-30T07:34:58.346Z,6.20
2018-03-30T07:37:25.719Z,8.10
2018-03-30T07:39:53.030Z,9.57
2018-03-30T07:42:20.316Z,8.60
2018-03-30T07:44:47.602Z,6.80
2018-03-30T07:47:14.886Z,5.97
2018-03-30T07:49:42.160Z,9.13
2018-03-30T07:52:09.448Z,7.80
2018-03-30T07:54:36.732Z,7.47
2018-03-30T07:57:04.017Z,7.30
2018-03-30T07:59:31.303Z,6.30
2018-03-30T08:01:58.582Z,10.07
2018-03-30T08:04:25.874Z,9.70
2018-03-30T08:06:53.224Z,8.07
2018-03-30T08:09:20.439Z,7.97
2018-03-30T08:11:47.717Z,9.87
2018-03-30T08:14:15.078Z,11.20
2018-03-30T08:16:42.396Z,11.90
2018-03-30T08:19:09.671Z,10.20
2018-03-30T08:21:36.971Z,9.17
2018-03-30T08:24:04.264Z,7.37
2018-03-30T08:26:31.752Z,8.17
2018-03-30T08:28:59.049Z,8.70
2018-03-30T08:31:26.341Z,10.67
2018-03-30T08:33:53.615Z,8.77
2018-03-30T08:36:20.907Z,13.33
2018-03-30T08:38:48.207Z,9.30
2018-03-30T08:41:15.548Z,12.17
2018-03-30T08:43:42.803Z,11.13
2018-03-30T08:46:10.092Z,7.27
2018-03-30T08:48:37.368Z,10.00
2018-03-30T08:51:04.648Z,9.70
2018-03-30T08:53:31.943Z,10.40
2018-03-30T08:55:59.224Z,9.23
2018-03-30T08:58:26.503Z,8.33
2018-03-30T09:00:53.777Z,14.27
2018-03-30T09:03:21.456Z,23.30
2018-03-30T09:05:48.898Z,8.20
2018-03-30T09:08:16.200Z,6.60
2018-03-30T09:10:43.468Z,4.53
2018-03-30T09:13:10.754Z,3.13
2018-03-30T09:15:38.820Z,4.10
2018-03-30T09:18:06.335Z,3.70
2018-03-30T09:20:33.648Z,3.47
2018-03-30T09:23:00.970Z,3.40
2018-03-30T09:25:28.253Z,4.63
2018-03-30T09:27:55.551Z,4.03
2018-03-30T09:30:22.839Z,6.33
2018-03-30T09:32:50.411Z,3.43
2018-03-30T09:35:17.703Z,3.63
2018-03-30T09:37:45.991Z,3.47
2018-03-30T09:40:13.271Z,2.60
2018-03-30T09:42:40.562Z,3.10
2018-03-30T09:45:07.851Z,3.63
2018-03-30T09:47:35.130Z,3.70
2018-03-30T09:50:02.451Z,4.50
2018-03-30T09:52:30.324Z,2.70
2018-03-30T09:54:57.609Z,3.73
2018-03-30T09:57:24.890Z,3.10
2018-03-30T09:59:52.223Z,2.60
2018-03-30T10:02:19.503Z,8.00
2018-03-30T10:04:52.440Z,2.13
2018-03-30T10:07:19.714Z,3.80
2018-03-30T10:09:46.986Z,3.57
2018-03-30T10:12:14.255Z,3.80
2018-03-30T10:14:41.539Z,4.07
2018-03-30T10:17:08.801Z,3.00
2018-03-30T10:19:36.075Z,5.50
2018-03-30T10:22:03.351Z,3.67
2018-03-30T10:24:30.683Z,18.70
2018-03-30T10:26:57.943Z,3.10
2018-03-30T10:29:25.229Z,3.23
2018-03-30T10:31:52.583Z,4.70
2018-03-30T10:34:19.918Z,3.40
2018-03-30T10:36:47.191Z,6.73
2018-03-30T10:39:14.452Z,3.97
2018-03-30T10:41:41.770Z,3.33
2018-03-30T10:44:09.011Z,2.93
2018-03-30T10:46:36.294Z,3.30
2018-03-30T10:49:03.571Z,2.90
2018-03-30T10:51:30.856Z,5.33
2018-03-30T10:53:58.141Z,2.03
2018-03-30T10:56:25.443Z,1.57
2018-03-30T10:58:52.736Z,1.13
2018-03-30T11:01:20.882Z,2.70
2018-03-30T11:03:48.168Z,2.40
2018-03-30T11:06:15.468Z,1.93
2018-03-30T11:08:42.743Z,1.57
2018-03-30T11:11:10.026Z,3.43
2018-03-30T11:13:37.294Z,2.00
2018-03-30T11:16:04.615Z,2.07
2018-03-30T11:18:31.884Z,1.67
2018-03-30T11:20:59.163Z,2.10
2018-03-30T11:23:26.444Z,1.37
2018-03-30T11:25:53.741Z,3.40
2018-03-30T11:28:21.044Z,2.80
2018-03-30T11:30:48.318Z,1.47
2018-03-30T11:33:15.603Z,2.80
2018-03-30T11:35:42.870Z,2.70
2018-03-30T11:38:10.155Z,3.40
2018-03-30T11:40:37.422Z,1.97
2018-03-30T11:43:04.721Z,1.60
2018-03-30T11:45:31.974Z,1.67
2018-03-30T11:47:59.256Z,1.57
2018-03-30T11:50:26.585Z,1.80
2018-03-30T11:52:53.830Z,2.90
2018-03-30T11:55:21.161Z,1.40
2018-03-30T11:57:49.080Z,3.00
2018-03-30T12:00:16.371Z,1.60
2018-03-30T12:02:43.647Z,2.40
2018-03-30T12:05:10.933Z,1.57
2018-03-30T12:07:38.219Z,1.30
2018-03-30T12:10:05.538Z,1.47
2018-03-30T12:12:32.808Z,1.17
2018-03-30T12:15:00.119Z,2.50
2018-03-30T12:17:27.378Z,8.53
2018-03-30T12:19:54.663Z,1.63
2018-03-30T12:22:21.975Z,5.17
2018-03-30T12:24:49.270Z,1.30
2018-03-30T12:27:16.571Z,2.93
2018-03-30T12:29:43.831Z,3.53
2018-03-30T12:32:11.122Z,1.33
2018-03-30T12:34:38.397Z,3.77
2018-03-30T12:37:05.696Z,2.03
2018-03-30T12:39:32.962Z,2.43
2018-03-30T12:42:00.258Z,1.40
2018-03-30T12:44:27.536Z,8.67
2018-03-30T12:46:54.816Z,7.73
2018-03-30T12:49:22.123Z,2.10
2018-03-30T12:51:49.407Z,2.00
2018-03-30T12:54:16.688Z,3.67
2018-03-30T12:56:43.962Z,1.57
2018-03-30T12:59:11.248Z,1.63
2018-03-30T13:01:38.533Z,3.33
2018-03-30T13:04:05.827Z,1.60
2018-03-30T13:06:33.110Z,1.40
2018-03-30T13:09:00.387Z,2.03
2018-03-30T13:11:27.669Z,1.43
2018-03-30T13:13:54.932Z,1.33
2018-03-30T13:16:22.250Z,2.07
2018-03-30T13:18:49.544Z,1.23
2018-03-30T13:21:16.846Z,2.23
2018-03-30T13:23:44.092Z,1.83
2018-03-30T13:26:11.380Z,2.60
2018-03-30T13:28:38.651Z,2.70
2018-03-30T13:31:05.922Z,2.97
2018-03-30T13:33:33.231Z,6.43
2018-03-30T13:36:00.522Z,2.13
2018-03-30T13:38:27.806Z,7.20
2018-03-30T13:40:55.094Z,4.90
2018-03-30T13:43:22.379Z,2.63
2018-03-30T13:45:49.650Z,3.33
2018-03-30T13:48:16.942Z,15.43
2018-03-30T13:51:02.007Z,2.70
2018-03-30T13:53:30.209Z,3.87
2018-03-30T13:55:57.482Z,3.80
2018-03-30T13:58:25.700Z,2.90
2018-03-30T14:00:57.853Z,3.00
2018-03-30T14:03:25.145Z,2.90
2018-03-30T14:05:58.304Z,3.90
2018-03-30T14:08:32.340Z,2.60
2018-03-30T14:11:05.410Z,3.30
2018-03-30T14:13:32.699Z,3.63
2018-03-30T14:15:59.978Z,3.40
2018-03-30T14:18:29.048Z,4.83
2018-03-30T14:20:56.323Z,3.40
2018-03-30T14:23:23.609Z,3.10
2018-03-30T14:25:50.927Z,4.77
2018-03-30T14:28:23.083Z,3.93
2018-03-30T14:30:52.149Z,4.20
2018-03-30T14:33:23.113Z,7.67
2018-03-30T14:35:53.071Z,9.57
2018-03-30T14:38:23.162Z,3.00
2018-03-30T14:40:51.291Z,10.00
2018-03-30T14:43:21.402Z,4.70
2018-03-30T14:45:54.536Z,2.50
2018-03-30T14:48:22.603Z,4.50
2018-03-30T14:50:49.898Z,5.00
2018-03-30T14:53:17.953Z,6.60
2018-03-30T14:55:50.159Z,5.13
2018-03-30T14:58:20.407Z,6.13
2018-03-30T15:00:47.756Z,5.53
2018-03-30T15:03:24.934Z,4.33
2018-03-30T15:05:55.026Z,4.70
2018-03-30T15:08:23.142Z,3.87
2018-03-30T15:11:07.238Z,5.30
2018-03-30T15:13:35.430Z,3.90
2018-03-30T15:16:08.450Z,3.33
2018-03-30T15:18:36.522Z,5.30
2018-03-30T15:21:03.787Z,3.80
2018-03-30T15:23:31.953Z,6.77
2018-03-30T15:26:14.110Z,6.20
2018-03-30T15:28:42.305Z,7.33
2018-03-30T15:31:09.571Z,6.30
2018-03-30T15:33:42.709Z,4.10
2018-03-30T15:36:15.937Z,3.80
2018-03-30T15:38:43.221Z,4.80
2018-03-30T15:41:10.487Z,4.90
2018-03-30T15:43:47.706Z,5.27
2018-03-30T15:46:17.592Z,3.83
2018-03-30T15:48:44.867Z,6.77
2018-03-30T15:51:12.230Z,3.53
2018-03-30T15:53:39.275Z,3.27
2018-03-30T15:56:07.326Z,3.60
2018-03-30T15:58:34.604Z,4.43
2018-03-30T16:01:02.822Z,4.57
2018-03-30T16:03:30.078Z,6.27
2018-03-30T16:05:57.364Z,3.53
2018-03-30T16:08:24.629Z,7.33
2018-03-30T16:10:53.702Z,6.13
2018-03-30T16:13:20.983Z,4.40
2018-03-30T16:15:48.296Z,5.67
2018-03-30T16:18:15.570Z,6.17
2018-03-30T16:20:42.595Z,6.17
2018-03-30T16:23:10.467Z,7.23
2018-03-30T16:25:37.489Z,5.13
2018-03-30T16:28:04.543Z,3.93
2018-03-30T16:30:31.760Z,5.50
2018-03-30T16:32:59.563Z,12.13
2018-03-30T16:35:26.601Z,5.67
2018-03-30T16:37:53.644Z,7.73
2018-03-30T16:40:20.913Z,8.70
2018-03-30T16:42:47.951Z,4.57
2018-03-30T16:45:14.987Z,5.83
2018-03-30T16:47:42.783Z,4.03
2018-03-30T16:50:09.830Z,4.60
2018-03-30T16:52:36.899Z,4.20
2018-03-30T16:55:03.937Z,4.93
2018-03-30T16:57:30.964Z,4.87
2018-03-30T16:59:58.008Z,6.10
2018-03-30T17:02:25.039Z,7.07
2018-03-30T17:04:52.094Z,6.70
2018-03-30T17:07:19.235Z,7.37
2018-03-30T17:09:46.279Z,4.73
2018-03-30T17:12:13.331Z,8.93
2018-03-30T17:14:40.992Z,10.63
2018-03-30T17:17:08.035Z,6.07
2018-03-30T17:19:35.078Z,10.00
2018-03-30T17:22:02.119Z,13.20
2018-03-30T17:24:29.884Z,6.20
2018-03-30T17:26:56.960Z,5.10
2018-03-30T17:29:23.984Z,8.27
2018-03-30T17:31:51.135Z,5.10
2018-03-30T17:34:18.174Z,9.00
2018-03-30T17:36:45.266Z,7.27
2018-03-30T17:39:12.347Z,7.33
2018-03-30T17:41:39.418Z,7.87
2018-03-30T17:44:06.438Z,7.83
2018-03-30T17:46:33.504Z,4.50
2018-03-30T17:49:00.551Z,8.07
2018-03-30T17:51:27.619Z,6.27
2018-03-30T17:53:54.695Z,10.00
2018-03-30T17:56:21.755Z,5.57
2018-03-30T17:58:49.364Z,7.00
2018-03-30T18:01:16.552Z,5.10
2018-03-30T18:03:43.660Z,8.77
2018-03-30T18:06:10.698Z,11.60
2018-03-30T18:08:37.971Z,8.17
2018-03-30T18:11:05.048Z,10.67
2018-03-30T18:13:32.138Z,7.43
2018-03-30T18:15:59.139Z,12.13
2018-03-30T18:18:26.168Z,5.57
2018-03-30T18:20:53.215Z,9.10
2018-03-30T18:23:20.263Z,6.73
2018-03-30T18:25:47.331Z,10.00
2018-03-30T18:28:14.418Z,5.73
2018-03-30T18:30:41.436Z,7.00
2018-03-30T18:33:08.474Z,7.37
2018-03-30T18:35:35.507Z,8.43
2018-03-30T18:38:02.558Z,9.13
2018-03-30T18:40:29.597Z,8.13
2018-03-30T18:42:56.642Z,7.43
2018-03-30T18:45:23.694Z,6.70
2018-03-30T18:47:50.723Z,5.97
2018-03-30T18:50:17.834Z,8.63
2018-03-30T18:52:44.902Z,10.00
2018-03-30T18:55:11.954Z,6.80
2018-03-30T18:57:38.993Z,5.67
2018-03-30T19:00:06.043Z,9.30
2018-03-30T19:02:33.087Z,8.00
2018-03-30T19:05:00.144Z,5.83
2018-03-30T19:07:27.187Z,5.90
2018-03-30T19:09:54.226Z,13.63
2018-03-30T19:12:21.301Z,7.97
2018-03-30T19:14:48.364Z,7.50
2018-03-30T19:17:15.395Z,8.50
2018-03-30T19:19:42.436Z,16.43
2018-03-30T19:22:09.508Z,10.63
2018-03-30T19:24:36.583Z,16.80
2018-03-30T19:27:03.632Z,9.00
2018-03-30T19:29:30.664Z,7.97
2018-03-30T19:31:57.717Z,10.77
2018-03-30T19:34:24.738Z,5.70
2018-03-30T19:36:51.806Z,7.70
2018-03-30T19:39:18.852Z,9.30
2018-03-30T19:41:45.889Z,6.60
2018-03-30T19:44:12.938Z,7.90
2018-03-30T19:46:39.984Z,9.83
2018-03-30T19:49:07.045Z,11.83
2018-03-30T19:51:34.065Z,8.73
2018-03-30T19:54:01.118Z,12.70
2018-03-30T19:56:28.207Z,11.00
2018-03-30T19:58:55.236Z,8.57
2018-03-30T20:01:22.284Z,8.73
2018-03-30T20:03:49.311Z,9.80
2018-03-30T20:06:16.388Z,9.30
2018-03-30T20:08:43.420Z,10.43
2018-03-30T20:11:10.472Z,9.17
2018-03-30T20:13:37.503Z,9.63
2018-03-30T20:16:04.558Z,14.90
2018-03-30T20:18:31.599Z,7.90
2018-03-30T20:20:58.641Z,8.70
2018-03-30T20:23:25.671Z,6.17
2018-03-30T20:25:52.745Z,9.10
2018-03-30T20:28:19.826Z,5.20
2018-03-30T20:30:46.890Z,5.97
2018-03-30T20:33:13.924Z,6.07
2018-03-30T20:35:40.968Z,7.13
2018-03-30T20:38:08.018Z,6.37
2018-03-30T20:40:35.845Z,5.30
2018-03-30T20:43:02.935Z,8.83
2018-03-30T20:45:30.004Z,10.33
2018-03-30T20:47:57.020Z,4.17
2018-03-30T20:50:24.090Z,11.30
2018-03-30T20:52:51.246Z,5.67
2018-03-30T20:55:18.243Z,6.90
2018-03-30T20:57:45.539Z,6.10
2018-03-30T21:00:12.597Z,6.13
2018-03-30T21:02:39.630Z,6.63
2018-03-30T21:05:06.686Z,6.60
2018-03-30T21:07:33.755Z,6.10
2018-03-30T21:10:00.799Z,9.40
2018-03-30T21:12:27.847Z,10.77
2018-03-30T21:14:54.910Z,7.27
2018-03-30T21:17:21.972Z,6.90
2018-03-30T21:19:49.059Z,9.80
2018-03-30T21:22:16.170Z,7.67
2018-03-30T21:24:43.225Z,8.47
2018-03-30T21:27:10.280Z,8.87
2018-03-30T21:29:37.406Z,8.83
2018-03-30T21:32:04.430Z,8.53
2018-03-30T21:34:31.700Z,9.97
2018-03-30T21:36:58.745Z,9.03
2018-03-30T21:39:25.783Z,8.90
2018-03-30T21:41:53.666Z,8.30
2018-03-30T21:44:20.784Z,13.03
2018-03-30T21:46:47.833Z,11.13
2018-03-30T21:49:14.887Z,10.50
2018-03-30T21:51:41.922Z,14.93
2018-03-30T21:54:08.969Z,10.00
2018-03-30T21:56:36.021Z,12.13
2018-03-30T21:59:03.102Z,13.70
2018-03-30T22:01:30.134Z,9.60
2018-03-30T22:03:57.182Z,12.17
2018-03-30T22:06:24.254Z,9.10
2018-03-30T22:08:51.406Z,7.80
2018-03-30T22:11:18.469Z,7.20
2018-03-30T22:13:45.511Z,11.90
2018-03-30T22:16:12.572Z,6.63
2018-03-30T22:18:39.615Z,8.50
2018-03-30T22:21:06.659Z,7.13
2018-03-30T22:23:33.702Z,6.40
2018-03-30T22:26:00.797Z,8.73
2018-03-30T22:28:27.840Z,8.50
2018-03-30T22:30:54.867Z,7.50
2018-03-30T22:33:21.928Z,10.83
2018-03-30T22:35:48.983Z,9.27
2018-03-30T22:38:16.035Z,7.43
2018-03-30T22:40:43.407Z,7.00
2018-03-30T22:43:10.453Z,7.90
2018-03-30T22:45:37.536Z,13.60
2018-03-30T22:48:04.585Z,5.77
2018-03-30T22:50:31.613Z,8.10
2018-03-30T22:52:58.673Z,4.83
2018-03-30T22:55:25.700Z,8.87
2018-03-30T22:57:52.742Z,6.73
2018-03-30T23:00:19.806Z,9.43
2018-03-30T23:02:46.884Z,5.53
2018-03-30T23:05:13.897Z,9.17
2018-03-30T23:07:41.283Z,3.50
2018-03-30T23:10:08.316Z,7.43
2018-03-30T23:12:35.373Z,6.03
2018-03-30T23:15:02.420Z,3.53
2018-03-30T23:17:29.510Z,4.30
2018-03-30T23:19:56.579Z,5.73
2018-03-30T23:22:23.866Z,5.10
2018-03-30T23:24:50.921Z,4.67
2018-03-30T23:27:17.960Z,4.57
2018-03-30T23:29:45.318Z,6.20
2018-03-30T23:32:12.352Z,4.97
2018-03-30T23:34:39.413Z,5.80
2018-03-30T23:37:06.463Z,5.40
2018-03-30T23:39:33.536Z,6.20
2018-03-30T23:42:00.639Z,7.03
2018-03-30T23:44:27.688Z,7.00
2018-03-30T23:46:54.718Z,5.03
2018-03-30T23:49:21.782Z,4.10
2018-03-30T23:51:49.047Z,3.93
2018-03-30T23:54:16.606Z,4.80
2018-03-30T23:56:43.647Z,5.27
2018-03-30T23:59:10.682Z,3.40
